Ginga Cheetah — 3ENG3 — position and weather

sailwx.info

Track history (hours):
 
Tides and Currents Weather Stations Pressure Air Temp Water Temp Dewpoint Dewpoint Depression Visibility Wind Speed Wind Dir Waves Ship Positions

Ginga Cheetah

Last reported at 2017-Oct-12 04:13 UTC. Time now 2017-Oct-17 05:44 UTC.
Position N 30°04' W 122°05'.

Length 160 m; draft 10.1 m.

Type: Ship (hazmat cat B). MMSI: 355700000.

Date/timePositionNaut miles runAvg speedWind from/ knotsBaromVisibWave heightAir tempDewpointWater temp
2017-Oct-12 04:13N 30°04' W 122°05'411.9
2017-Oct-12 03:54N 30°02' W 122°02'611.8
2017-Oct-12 03:26N 29°58' W 121°56'511.9
2017-Oct-12 03:00N 29°55' W 121°52'812.2
2017-Oct-12 02:22N 29°51' W 121°45'412.4
2017-Oct-12 02:00N 29°48' W 121°40'1312.4
2017-Oct-12 00:59N 29°41' W 121°29'612.3
2017-Oct-12 00:30N 29°37' W 121°23'1312.5
2017-Oct-11 23:25N 29°29' W 121°11'  
Track history (hours):
 
Tides and Currents Weather Stations Pressure Air Temp Water Temp Dewpoint Dewpoint Depression Visibility Wind Speed Wind Dir Waves Ship Positions

Ginga Cheetah

Last reported at 2017-Oct-12 04:13 UTC. Time now 2017-Oct-17 05:44 UTC.
Position N 30°04' W 122°05'.

Length 160 m; draft 10.1 m.

Type: Ship (hazmat cat B). MMSI: 355700000.

Date/timePositionNaut miles runAvg speedWind from/ knotsBaromVisibWave heightAir tempDewpointWater temp
2017-Oct-12 04:13N 30°04' W 122°05'411.9
2017-Oct-12 03:54N 30°02' W 122°02'611.8
2017-Oct-12 03:26N 29°58' W 121°56'511.9
2017-Oct-12 03:00N 29°55' W 121°52'812.2
2017-Oct-12 02:22N 29°51' W 121°45'412.4
2017-Oct-12 02:00N 29°48' W 121°40'1312.4
2017-Oct-12 00:59N 29°41' W 121°29'612.3
2017-Oct-12 00:30N 29°37' W 121°23'1312.5
2017-Oct-11 23:25N 29°29' W 121°11'  

Dump ship's entire track history